sensor_id;sensor_type;location;lat;lon;timestamp;temperature;humidity
4934;DHT22;2482;49.154;8.254;2023-05-27T00:00:28;13.00;99.90
4934;DHT22;2482;49.154;8.254;2023-05-27T00:02:55;13.00;99.90
4934;DHT22;2482;49.154;8.254;2023-05-27T00:05:22;13.10;99.90
4934;DHT22;2482;49.154;8.254;2023-05-27T00:07:49;13.10;99.90
4934;DHT22;2482;49.154;8.254;2023-05-27T00:10:16;13.00;99.90
4934;DHT22;2482;49.154;8.254;2023-05-27T00:12:43;13.10;99.90
4934;DHT22;2482;49.154;8.254;2023-05-27T00:15:10;12.90;99.90
4934;DHT22;2482;49.154;8.254;2023-05-27T00:17:37;12.90;99.90
4934;DHT22;2482;49.154;8.254;2023-05-27T00:20:06;12.80;99.90
4934;DHT22;2482;49.154;8.254;2023-05-27T00:22:34;12.80;99.90
4934;DHT22;2482;49.154;8.254;2023-05-27T00:25:03;12.80;99.90
4934;DHT22;2482;49.154;8.254;2023-05-27T00:27:30;12.70;99.90
4934;DHT22;2482;49.154;8.254;2023-05-27T00:29:58;12.60;99.90
4934;DHT22;2482;49.154;8.254;2023-05-27T00:32:25;12.60;99.90
4934;DHT22;2482;49.154;8.254;2023-05-27T00:34:52;12.70;99.90
4934;DHT22;2482;49.154;8.254;2023-05-27T00:37:19;12.50;99.90
4934;DHT22;2482;49.154;8.254;2023-05-27T00:39:46;12.50;99.90
4934;DHT22;2482;49.154;8.254;2023-05-27T00:42:13;12.50;99.90
4934;DHT22;2482;49.154;8.254;2023-05-27T00:44:40;12.50;99.90
4934;DHT22;2482;49.154;8.254;2023-05-27T00:47:08;12.50;99.90
4934;DHT22;2482;49.154;8.254;2023-05-27T00:49:35;12.40;99.90
4934;DHT22;2482;49.154;8.254;2023-05-27T00:52:02;12.40;99.90
4934;DHT22;2482;49.154;8.254;2023-05-27T00:54:30;12.40;99.90
4934;DHT22;2482;49.154;8.254;2023-05-27T00:57:01;12.20;99.90
4934;DHT22;2482;49.154;8.254;2023-05-27T00:59:31;12.20;99.90
4934;DHT22;2482;49.154;8.254;2023-05-27T01:01:58;12.10;99.90
4934;DHT22;2482;49.154;8.254;2023-05-27T01:04:26;12.00;99.90
4934;DHT22;2482;49.154;8.254;2023-05-27T01:07:08;12.00;99.90
4934;DHT22;2482;49.154;8.254;2023-05-27T01:09:52;11.90;99.90
4934;DHT22;2482;49.154;8.254;2023-05-27T01:12:38;11.80;99.90
4934;DHT22;2482;49.154;8.254;2023-05-27T01:15:12;11.80;99.90
4934;DHT22;2482;49.154;8.254;2023-05-27T01:17:40;11.50;99.90
4934;DHT22;2482;49.154;8.254;2023-05-27T01:20:14;11.40;99.90
4934;DHT22;2482;49.154;8.254;2023-05-27T01:22:42;11.60;99.90
4934;DHT22;2482;49.154;8.254;2023-05-27T01:25:10;11.60;99.90
4934;DHT22;2482;49.154;8.254;2023-05-27T01:27:37;11.70;99.90
4934;DHT22;2482;49.154;8.254;2023-05-27T01:30:08;11.70;99.90
4934;DHT22;2482;49.154;8.254;2023-05-27T01:32:43;11.70;99.90
4934;DHT22;2482;49.154;8.254;2023-05-27T01:37:46;11.70;99.90
4934;DHT22;2482;49.154;8.254;2023-05-27T01:40:14;11.70;99.90
4934;DHT22;2482;49.154;8.254;2023-05-27T01:42:43;11.60;99.90
4934;DHT22;2482;49.154;8.254;2023-05-27T01:45:11;11.60;99.90
4934;DHT22;2482;49.154;8.254;2023-05-27T01:47:39;11.50;99.90
4934;DHT22;2482;49.154;8.254;2023-05-27T01:50:07;11.40;99.90
4934;DHT22;2482;49.154;8.254;2023-05-27T01:52:34;11.30;99.90
4934;DHT22;2482;49.154;8.254;2023-05-27T01:55:01;11.40;99.90
4934;DHT22;2482;49.154;8.254;2023-05-27T01:57:31;11.30;99.90
4934;DHT22;2482;49.154;8.254;2023-05-27T01:59:58;11.40;99.90
4934;DHT22;2482;49.154;8.254;2023-05-27T02:02:25;11.30;99.90
4934;DHT22;2482;49.154;8.254;2023-05-27T02:04:52;11.20;99.90
4934;DHT22;2482;49.154;8.254;2023-05-27T02:07:19;11.10;99.90
4934;DHT22;2482;49.154;8.254;2023-05-27T02:09:46;10.90;99.90
4934;DHT22;2482;49.154;8.254;2023-05-27T02:12:13;10.90;99.90
4934;DHT22;2482;49.154;8.254;2023-05-27T02:14:40;10.80;99.90
4934;DHT22;2482;49.154;8.254;2023-05-27T02:17:08;10.70;99.90
4934;DHT22;2482;49.154;8.254;2023-05-27T02:19:35;10.80;99.90
4934;DHT22;2482;49.154;8.254;2023-05-27T02:22:02;10.80;99.90
4934;DHT22;2482;49.154;8.254;2023-05-27T02:24:29;10.90;99.90
4934;DHT22;2482;49.154;8.254;2023-05-27T02:26:56;10.90;99.90
4934;DHT22;2482;49.154;8.254;2023-05-27T02:29:23;11.00;99.90
4934;DHT22;2482;49.154;8.254;2023-05-27T02:31:50;10.70;99.90
4934;DHT22;2482;49.154;8.254;2023-05-27T02:34:17;10.80;99.90
4934;DHT22;2482;49.154;8.254;2023-05-27T02:36:44;10.80;99.90
4934;DHT22;2482;49.154;8.254;2023-05-27T02:39:12;10.80;99.90
4934;DHT22;2482;49.154;8.254;2023-05-27T02:41:39;10.90;99.90
4934;DHT22;2482;49.154;8.254;2023-05-27T02:44:06;10.90;99.90
4934;DHT22;2482;49.154;8.254;2023-05-27T02:46:33;10.80;99.90
4934;DHT22;2482;49.154;8.254;2023-05-27T02:49:00;10.80;99.90
4934;DHT22;2482;49.154;8.254;2023-05-27T02:51:28;10.70;99.90
4934;DHT22;2482;49.154;8.254;2023-05-27T02:53:55;10.70;99.90
4934;DHT22;2482;49.154;8.254;2023-05-27T02:56:22;10.60;99.90
4934;DHT22;2482;49.154;8.254;2023-05-27T02:58:52;10.70;99.90
4934;DHT22;2482;49.154;8.254;2023-05-27T03:01:19;10.60;99.90
4934;DHT22;2482;49.154;8.254;2023-05-27T03:03:47;10.40;99.90
4934;DHT22;2482;49.154;8.254;2023-05-27T03:06:14;10.50;99.90
4934;DHT22;2482;49.154;8.254;2023-05-27T03:08:41;10.50;99.90
4934;DHT22;2482;49.154;8.254;2023-05-27T03:11:08;10.40;99.90
4934;DHT22;2482;49.154;8.254;2023-05-27T03:13:35;10.30;99.90
4934;DHT22;2482;49.154;8.254;2023-05-27T03:16:02;10.30;99.90
4934;DHT22;2482;49.154;8.254;2023-05-27T03:18:29;10.30;99.90
4934;DHT22;2482;49.154;8.254;2023-05-27T03:20:56;10.10;99.90
4934;DHT22;2482;49.154;8.254;2023-05-27T03:23:23;10.10;99.90
4934;DHT22;2482;49.154;8.254;2023-05-27T03:25:50;10.20;99.90
4934;DHT22;2482;49.154;8.254;2023-05-27T03:28:17;10.20;99.90
4934;DHT22;2482;49.154;8.254;2023-05-27T03:30:44;10.10;99.90
4934;DHT22;2482;49.154;8.254;2023-05-27T03:33:11;10.20;99.90
4934;DHT22;2482;49.154;8.254;2023-05-27T03:35:38;10.00;99.90
4934;DHT22;2482;49.154;8.254;2023-05-27T03:38:05;10.00;99.90
4934;DHT22;2482;49.154;8.254;2023-05-27T03:40:32;10.00;99.90
4934;DHT22;2482;49.154;8.254;2023-05-27T03:42:59;10.00;99.90
4934;DHT22;2482;49.154;8.254;2023-05-27T03:45:27;10.10;99.90
4934;DHT22;2482;49.154;8.254;2023-05-27T03:47:54;10.00;99.90
4934;DHT22;2482;49.154;8.254;2023-05-27T03:50:21;10.10;99.90
4934;DHT22;2482;49.154;8.254;2023-05-27T03:52:48;10.20;99.90
4934;DHT22;2482;49.154;8.254;2023-05-27T03:55:16;10.30;99.90
4934;DHT22;2482;49.154;8.254;2023-05-27T03:57:43;10.40;99.90
4934;DHT22;2482;49.154;8.254;2023-05-27T04:00:10;10.40;99.90
4934;DHT22;2482;49.154;8.254;2023-05-27T04:02:42;10.40;99.90
4934;DHT22;2482;49.154;8.254;2023-05-27T04:05:10;10.50;99.90
4934;DHT22;2482;49.154;8.254;2023-05-27T04:07:37;10.60;99.90
4934;DHT22;2482;49.154;8.254;2023-05-27T04:10:05;10.60;99.90
4934;DHT22;2482;49.154;8.254;2023-05-27T04:12:32;10.60;99.90
4934;DHT22;2482;49.154;8.254;2023-05-27T04:14:59;10.60;99.90
4934;DHT22;2482;49.154;8.254;2023-05-27T04:17:26;10.70;99.90
4934;DHT22;2482;49.154;8.254;2023-05-27T04:19:54;10.90;99.90
4934;DHT22;2482;49.154;8.254;2023-05-27T04:22:21;10.90;99.90
4934;DHT22;2482;49.154;8.254;2023-05-27T04:24:48;10.90;99.90
4934;DHT22;2482;49.154;8.254;2023-05-27T04:27:15;10.90;99.90
4934;DHT22;2482;49.154;8.254;2023-05-27T04:29:45;11.10;99.90
4934;DHT22;2482;49.154;8.254;2023-05-27T04:32:14;11.10;99.90
4934;DHT22;2482;49.154;8.254;2023-05-27T04:34:44;11.00;99.90
4934;DHT22;2482;49.154;8.254;2023-05-27T04:37:11;11.10;99.90
4934;DHT22;2482;49.154;8.254;2023-05-27T04:39:38;11.20;99.90
4934;DHT22;2482;49.154;8.254;2023-05-27T04:42:12;11.30;99.90
4934;DHT22;2482;49.154;8.254;2023-05-27T04:44:42;11.40;99.90
4934;DHT22;2482;49.154;8.254;2023-05-27T04:47:09;11.50;99.90
4934;DHT22;2482;49.154;8.254;2023-05-27T04:49:36;11.50;99.90
4934;DHT22;2482;49.154;8.254;2023-05-27T04:52:03;11.50;99.90
4934;DHT22;2482;49.154;8.254;2023-05-27T04:54:34;11.60;99.90
4934;DHT22;2482;49.154;8.254;2023-05-27T04:57:01;11.70;99.90
4934;DHT22;2482;49.154;8.254;2023-05-27T04:59:28;11.70;99.90
4934;DHT22;2482;49.154;8.254;2023-05-27T05:02:26;11.80;99.90
4934;DHT22;2482;49.154;8.254;2023-05-27T05:05:08;12.00;99.90
4934;DHT22;2482;49.154;8.254;2023-05-27T05:07:36;12.10;99.90
4934;DHT22;2482;49.154;8.254;2023-05-27T05:10:09;12.10;99.90
4934;DHT22;2482;49.154;8.254;2023-05-27T05:12:37;12.20;99.90
4934;DHT22;2482;49.154;8.254;2023-05-27T05:15:05;12.30;99.90
4934;DHT22;2482;49.154;8.254;2023-05-27T05:17:34;12.30;99.90
4934;DHT22;2482;49.154;8.254;2023-05-27T05:20:02;12.40;99.90
4934;DHT22;2482;49.154;8.254;2023-05-27T05:22:31;12.50;99.90
4934;DHT22;2482;49.154;8.254;2023-05-27T05:24:58;12.60;99.90
4934;DHT22;2482;49.154;8.254;2023-05-27T05:27:26;12.60;99.90
4934;DHT22;2482;49.154;8.254;2023-05-27T05:29:53;12.70;99.90
4934;DHT22;2482;49.154;8.254;2023-05-27T05:32:20;12.90;99.90
4934;DHT22;2482;49.154;8.254;2023-05-27T05:34:47;12.90;99.90
4934;DHT22;2482;49.154;8.254;2023-05-27T05:37:14;13.00;99.90
4934;DHT22;2482;49.154;8.254;2023-05-27T05:39:42;13.20;99.90
4934;DHT22;2482;49.154;8.254;2023-05-27T05:42:09;13.20;99.90
4934;DHT22;2482;49.154;8.254;2023-05-27T05:44:36;13.40;99.90
4934;DHT22;2482;49.154;8.254;2023-05-27T05:47:04;13.40;99.90
4934;DHT22;2482;49.154;8.254;2023-05-27T05:49:31;13.50;99.90
4934;DHT22;2482;49.154;8.254;2023-05-27T05:51:58;13.60;99.90
4934;DHT22;2482;49.154;8.254;2023-05-27T05:54:25;13.50;99.90
4934;DHT22;2482;49.154;8.254;2023-05-27T05:56:52;13.60;99.90
4934;DHT22;2482;49.154;8.254;2023-05-27T05:59:19;13.60;99.90
4934;DHT22;2482;49.154;8.254;2023-05-27T06:01:46;13.80;99.90
4934;DHT22;2482;49.154;8.254;2023-05-27T06:04:13;13.70;99.90
4934;DHT22;2482;49.154;8.254;2023-05-27T06:06:40;14.00;99.90
4934;DHT22;2482;49.154;8.254;2023-05-27T06:09:08;13.90;99.90
4934;DHT22;2482;49.154;8.254;2023-05-27T06:11:35;13.90;99.90
4934;DHT22;2482;49.154;8.254;2023-05-27T06:14:02;14.10;99.90
4934;DHT22;2482;49.154;8.254;2023-05-27T06:16:29;14.40;99.90
4934;DHT22;2482;49.154;8.254;2023-05-27T06:18:56;14.50;99.90
4934;DHT22;2482;49.154;8.254;2023-05-27T06:21:23;14.60;99.90
4934;DHT22;2482;49.154;8.254;2023-05-27T06:23:50;14.70;99.90
4934;DHT22;2482;49.154;8.254;2023-05-27T06:26:17;14.70;99.90
4934;DHT22;2482;49.154;8.254;2023-05-27T06:28:44;14.70;99.90
4934;DHT22;2482;49.154;8.254;2023-05-27T06:31:11;14.70;99.90
4934;DHT22;2482;49.154;8.254;2023-05-27T06:33:41;14.70;99.90
4934;DHT22;2482;49.154;8.254;2023-05-27T06:36:08;14.90;99.90
4934;DHT22;2482;49.154;8.254;2023-05-27T06:38:35;15.00;99.90
4934;DHT22;2482;49.154;8.254;2023-05-27T06:41:02;15.10;99.90
4934;DHT22;2482;49.154;8.254;2023-05-27T06:43:29;15.20;99.90
4934;DHT22;2482;49.154;8.254;2023-05-27T06:45:56;15.40;99.90
4934;DHT22;2482;49.154;8.254;2023-05-27T06:48:31;15.40;99.90
4934;DHT22;2482;49.154;8.254;2023-05-27T06:50:58;15.30;99.90
4934;DHT22;2482;49.154;8.254;2023-05-27T06:53:25;15.50;99.90
4934;DHT22;2482;49.154;8.254;2023-05-27T06:55:53;15.40;99.90
4934;DHT22;2482;49.154;8.254;2023-05-27T06:58:20;15.50;99.90
4934;DHT22;2482;49.154;8.254;2023-05-27T07:00:47;15.50;99.90
4934;DHT22;2482;49.154;8.254;2023-05-27T07:03:15;15.80;99.90
4934;DHT22;2482;49.154;8.254;2023-05-27T07:05:42;15.80;99.90
4934;DHT22;2482;49.154;8.254;2023-05-27T07:08:09;16.00;99.90
4934;DHT22;2482;49.154;8.254;2023-05-27T07:10:36;16.10;99.90
4934;DHT22;2482;49.154;8.254;2023-05-27T07:13:03;16.10;99.90
4934;DHT22;2482;49.154;8.254;2023-05-27T07:15:30;16.10;99.90
4934;DHT22;2482;49.154;8.254;2023-05-27T07:17:58;16.10;99.90
4934;DHT22;2482;49.154;8.254;2023-05-27T07:20:25;16.20;99.90
4934;DHT22;2482;49.154;8.254;2023-05-27T07:22:52;16.30;99.90
4934;DHT22;2482;49.154;8.254;2023-05-27T07:25:19;16.50;99.90
4934;DHT22;2482;49.154;8.254;2023-05-27T07:27:46;16.60;99.90
4934;DHT22;2482;49.154;8.254;2023-05-27T07:30:15;16.50;99.90
4934;DHT22;2482;49.154;8.254;2023-05-27T07:32:45;16.80;99.90
4934;DHT22;2482;49.154;8.254;2023-05-27T07:35:15;16.80;99.90
4934;DHT22;2482;49.154;8.254;2023-05-27T07:37:42;16.80;99.90
4934;DHT22;2482;49.154;8.254;2023-05-27T07:40:09;17.00;99.90
4934;DHT22;2482;49.154;8.254;2023-05-27T07:42:36;16.90;99.90
4934;DHT22;2482;49.154;8.254;2023-05-27T07:45:03;17.00;99.90
4934;DHT22;2482;49.154;8.254;2023-05-27T07:47:31;16.90;99.90
4934;DHT22;2482;49.154;8.254;2023-05-27T07:49:58;16.80;99.90
4934;DHT22;2482;49.154;8.254;2023-05-27T07:52:25;17.00;99.90
4934;DHT22;2482;49.154;8.254;2023-05-27T07:54:52;17.00;99.90
4934;DHT22;2482;49.154;8.254;2023-05-27T07:57:21;17.30;99.90
4934;DHT22;2482;49.154;8.254;2023-05-27T07:59:49;17.60;99.90
4934;DHT22;2482;49.154;8.254;2023-05-27T08:02:16;18.10;99.90
4934;DHT22;2482;49.154;8.254;2023-05-27T08:04:43;18.20;99.90
4934;DHT22;2482;49.154;8.254;2023-05-27T08:07:11;18.30;99.90
4934;DHT22;2482;49.154;8.254;2023-05-27T08:09:38;18.20;99.90
4934;DHT22;2482;49.154;8.254;2023-05-27T08:12:05;18.20;99.90
4934;DHT22;2482;49.154;8.254;2023-05-27T08:14:38;18.20;99.90
4934;DHT22;2482;49.154;8.254;2023-05-27T08:17:05;18.50;99.90
4934;DHT22;2482;49.154;8.254;2023-05-27T08:19:32;18.60;99.90
4934;DHT22;2482;49.154;8.254;2023-05-27T08:21:59;18.60;99.90
4934;DHT22;2482;49.154;8.254;2023-05-27T08:24:31;18.30;99.90
4934;DHT22;2482;49.154;8.254;2023-05-27T08:26:58;18.50;99.90
4934;DHT22;2482;49.154;8.254;2023-05-27T08:29:25;18.50;99.90
4934;DHT22;2482;49.154;8.254;2023-05-27T08:31:54;18.60;99.90
4934;DHT22;2482;49.154;8.254;2023-05-27T08:34:21;18.80;99.90
4934;DHT22;2482;49.154;8.254;2023-05-27T08:36:49;18.70;99.90
4934;DHT22;2482;49.154;8.254;2023-05-27T08:39:16;18.70;99.90
4934;DHT22;2482;49.154;8.254;2023-05-27T08:41:43;18.80;99.90
4934;DHT22;2482;49.154;8.254;2023-05-27T08:44:11;18.90;99.90
4934;DHT22;2482;49.154;8.254;2023-05-27T08:46:51;19.00;99.90
4934;DHT22;2482;49.154;8.254;2023-05-27T08:49:19;19.50;99.90
4934;DHT22;2482;49.154;8.254;2023-05-27T08:51:46;19.90;99.90
4934;DHT22;2482;49.154;8.254;2023-05-27T08:54:13;19.90;99.90
4934;DHT22;2482;49.154;8.254;2023-05-27T08:56:43;19.80;99.90
4934;DHT22;2482;49.154;8.254;2023-05-27T08:59:11;19.60;99.90
4934;DHT22;2482;49.154;8.254;2023-05-27T09:01:39;19.60;99.90
4934;DHT22;2482;49.154;8.254;2023-05-27T09:04:07;19.70;99.90
4934;DHT22;2482;49.154;8.254;2023-05-27T09:06:34;19.70;99.90
4934;DHT22;2482;49.154;8.254;2023-05-27T09:09:01;20.00;99.90
4934;DHT22;2482;49.154;8.254;2023-05-27T09:11:28;20.00;99.90
4934;DHT22;2482;49.154;8.254;2023-05-27T09:13:57;20.20;99.90
4934;DHT22;2482;49.154;8.254;2023-05-27T09:16:24;20.50;99.90
4934;DHT22;2482;49.154;8.254;2023-05-27T09:18:51;20.80;99.90
4934;DHT22;2482;49.154;8.254;2023-05-27T09:21:18;20.50;99.90
4934;DHT22;2482;49.154;8.254;2023-05-27T09:23:45;20.40;99.90
4934;DHT22;2482;49.154;8.254;2023-05-27T09:26:13;20.50;99.90
4934;DHT22;2482;49.154;8.254;2023-05-27T09:28:40;20.50;99.90
4934;DHT22;2482;49.154;8.254;2023-05-27T09:31:08;20.60;99.90
4934;DHT22;2482;49.154;8.254;2023-05-27T09:33:38;20.50;99.90
4934;DHT22;2482;49.154;8.254;2023-05-27T09:36:07;20.60;99.90
4934;DHT22;2482;49.154;8.254;2023-05-27T09:38:37;20.80;99.90
4934;DHT22;2482;49.154;8.254;2023-05-27T09:41:05;21.00;99.90
4934;DHT22;2482;49.154;8.254;2023-05-27T09:43:32;20.90;99.90
4934;DHT22;2482;49.154;8.254;2023-05-27T09:46:01;21.40;99.90
4934;DHT22;2482;49.154;8.254;2023-05-27T09:48:30;21.50;99.90
4934;DHT22;2482;49.154;8.254;2023-05-27T09:50:59;21.30;99.90
4934;DHT22;2482;49.154;8.254;2023-05-27T09:53:27;21.90;99.90
4934;DHT22;2482;49.154;8.254;2023-05-27T09:55:55;22.20;99.90
4934;DHT22;2482;49.154;8.254;2023-05-27T09:58:24;22.00;99.90
4934;DHT22;2482;49.154;8.254;2023-05-27T10:00:52;21.90;99.90
4934;DHT22;2482;49.154;8.254;2023-05-27T10:03:21;21.40;99.90
4934;DHT22;2482;49.154;8.254;2023-05-27T10:05:51;21.50;99.90
4934;DHT22;2482;49.154;8.254;2023-05-27T10:08:19;22.00;99.90
4934;DHT22;2482;49.154;8.254;2023-05-27T10:10:49;22.00;99.90
4934;DHT22;2482;49.154;8.254;2023-05-27T10:13:18;22.10;99.90
4934;DHT22;2482;49.154;8.254;2023-05-27T10:15:48;22.00;99.90
4934;DHT22;2482;49.154;8.254;2023-05-27T10:18:26;21.60;99.90
4934;DHT22;2482;49.154;8.254;2023-05-27T10:20:58;21.50;99.90
4934;DHT22;2482;49.154;8.254;2023-05-27T10:23:28;22.00;99.90
4934;DHT22;2482;49.154;8.254;2023-05-27T10:28:38;22.10;99.90
4934;DHT22;2482;49.154;8.254;2023-05-27T10:31:19;22.40;99.90
4934;DHT22;2482;49.154;8.254;2023-05-27T10:33:49;22.20;99.90
4934;DHT22;2482;49.154;8.254;2023-05-27T10:36:25;22.30;99.90
4934;DHT22;2482;49.154;8.254;2023-05-27T10:39:08;22.60;99.90
4934;DHT22;2482;49.154;8.254;2023-05-27T10:47:11;23.00;99.90
4934;DHT22;2482;49.154;8.254;2023-05-27T10:49:46;22.70;99.90
4934;DHT22;2482;49.154;8.254;2023-05-27T10:52:16;23.00;99.90
4934;DHT22;2482;49.154;8.254;2023-05-27T10:54:45;23.10;99.90
4934;DHT22;2482;49.154;8.254;2023-05-27T10:57:14;23.10;99.90
4934;DHT22;2482;49.154;8.254;2023-05-27T10:59:50;23.20;99.90
4934;DHT22;2482;49.154;8.254;2023-05-27T11:02:29;23.10;99.90
4934;DHT22;2482;49.154;8.254;2023-05-27T11:04:58;22.70;99.90
4934;DHT22;2482;49.154;8.254;2023-05-27T11:07:25;22.70;99.90
4934;DHT22;2482;49.154;8.254;2023-05-27T11:09:54;22.60;99.90
4934;DHT22;2482;49.154;8.254;2023-05-27T11:12:23;22.90;99.90
4934;DHT22;2482;49.154;8.254;2023-05-27T11:14:52;22.90;99.90
4934;DHT22;2482;49.154;8.254;2023-05-27T11:17:22;23.20;99.90
4934;DHT22;2482;49.154;8.254;2023-05-27T11:19:50;23.00;99.90
4934;DHT22;2482;49.154;8.254;2023-05-27T11:22:18;23.30;99.90
4934;DHT22;2482;49.154;8.254;2023-05-27T11:25:15;23.50;99.90
4934;DHT22;2482;49.154;8.254;2023-05-27T11:27:42;23.40;99.90
4934;DHT22;2482;49.154;8.254;2023-05-27T11:30:11;23.10;99.90
4934;DHT22;2482;49.154;8.254;2023-05-27T11:32:41;23.00;99.90
4934;DHT22;2482;49.154;8.254;2023-05-27T11:35:15;23.20;99.90
4934;DHT22;2482;49.154;8.254;2023-05-27T11:37:49;23.60;99.90
4934;DHT22;2482;49.154;8.254;2023-05-27T11:40:17;24.00;99.90
4934;DHT22;2482;49.154;8.254;2023-05-27T11:42:45;24.00;99.90
4934;DHT22;2482;49.154;8.254;2023-05-27T11:45:17;23.70;99.90
4934;DHT22;2482;49.154;8.254;2023-05-27T11:47:46;23.50;99.90
4934;DHT22;2482;49.154;8.254;2023-05-27T11:50:20;23.50;99.90
4934;DHT22;2482;49.154;8.254;2023-05-27T11:52:55;23.40;99.90
4934;DHT22;2482;49.154;8.254;2023-05-27T11:55:23;23.80;99.90
4934;DHT22;2482;49.154;8.254;2023-05-27T11:57:51;24.20;99.90
4934;DHT22;2482;49.154;8.254;2023-05-27T12:00:18;23.80;99.90
4934;DHT22;2482;49.154;8.254;2023-05-27T12:02:46;23.40;99.90
4934;DHT22;2482;49.154;8.254;2023-05-27T12:05:14;23.70;99.90
4934;DHT22;2482;49.154;8.254;2023-05-27T12:07:59;23.80;99.90
4934;DHT22;2482;49.154;8.254;2023-05-27T12:10:26;23.60;99.90
4934;DHT22;2482;49.154;8.254;2023-05-27T12:13:02;23.60;99.90
4934;DHT22;2482;49.154;8.254;2023-05-27T12:15:32;23.40;99.90
4934;DHT22;2482;49.154;8.254;2023-05-27T12:18:00;23.40;99.90
4934;DHT22;2482;49.154;8.254;2023-05-27T12:20:28;23.50;99.90
4934;DHT22;2482;49.154;8.254;2023-05-27T12:22:56;23.60;99.90
4934;DHT22;2482;49.154;8.254;2023-05-27T12:25:23;23.50;99.90
4934;DHT22;2482;49.154;8.254;2023-05-27T12:27:50;23.90;99.90
4934;DHT22;2482;49.154;8.254;2023-05-27T12:30:17;24.20;99.90
4934;DHT22;2482;49.154;8.254;2023-05-27T12:32:44;24.70;99.90
4934;DHT22;2482;49.154;8.254;2023-05-27T12:35:11;24.60;99.90
4934;DHT22;2482;49.154;8.254;2023-05-27T12:37:38;24.60;99.90
4934;DHT22;2482;49.154;8.254;2023-05-27T12:40:06;24.10;99.90
4934;DHT22;2482;49.154;8.254;2023-05-27T12:42:36;24.40;99.90
4934;DHT22;2482;49.154;8.254;2023-05-27T12:45:03;24.90;99.90
4934;DHT22;2482;49.154;8.254;2023-05-27T12:47:30;24.70;99.90
4934;DHT22;2482;49.154;8.254;2023-05-27T12:49:58;24.40;99.90
4934;DHT22;2482;49.154;8.254;2023-05-27T12:52:26;24.30;99.70
4934;DHT22;2482;49.154;8.254;2023-05-27T12:54:53;24.10;99.90
4934;DHT22;2482;49.154;8.254;2023-05-27T12:57:20;24.10;99.90
4934;DHT22;2482;49.154;8.254;2023-05-27T12:59:47;24.50;99.90
4934;DHT22;2482;49.154;8.254;2023-05-27T13:02:14;24.30;99.30
4934;DHT22;2482;49.154;8.254;2023-05-27T13:04:41;24.30;99.40
4934;DHT22;2482;49.154;8.254;2023-05-27T13:07:11;24.20;99.90
4934;DHT22;2482;49.154;8.254;2023-05-27T13:09:39;24.00;99.90
4934;DHT22;2482;49.154;8.254;2023-05-27T13:12:07;24.10;99.90
4934;DHT22;2482;49.154;8.254;2023-05-27T13:14:34;24.20;99.50
4934;DHT22;2482;49.154;8.254;2023-05-27T13:17:01;24.30;99.50
4934;DHT22;2482;49.154;8.254;2023-05-27T13:19:29;24.20;99.50
4934;DHT22;2482;49.154;8.254;2023-05-27T13:21:56;24.30;99.90
4934;DHT22;2482;49.154;8.254;2023-05-27T13:24:23;24.30;98.60
4934;DHT22;2482;49.154;8.254;2023-05-27T13:26:50;24.20;99.50
4934;DHT22;2482;49.154;8.254;2023-05-27T13:29:17;24.30;97.90
4934;DHT22;2482;49.154;8.254;2023-05-27T13:31:44;24.30;99.90
4934;DHT22;2482;49.154;8.254;2023-05-27T13:34:12;24.50;99.90
4934;DHT22;2482;49.154;8.254;2023-05-27T13:36:39;24.60;99.30
4934;DHT22;2482;49.154;8.254;2023-05-27T13:39:06;24.80;96.50
4934;DHT22;2482;49.154;8.254;2023-05-27T13:41:33;24.70;97.60
4934;DHT22;2482;49.154;8.254;2023-05-27T13:44:00;24.30;96.40
4934;DHT22;2482;49.154;8.254;2023-05-27T13:46:29;24.50;98.70
4934;DHT22;2482;49.154;8.254;2023-05-27T13:48:56;25.00;99.90
4934;DHT22;2482;49.154;8.254;2023-05-27T13:51:23;25.10;96.70
4934;DHT22;2482;49.154;8.254;2023-05-27T13:53:50;24.80;96.00
4934;DHT22;2482;49.154;8.254;2023-05-27T13:56:17;24.90;95.90
4934;DHT22;2482;49.154;8.254;2023-05-27T13:58:44;24.80;96.50
4934;DHT22;2482;49.154;8.254;2023-05-27T14:01:12;24.70;96.50
4934;DHT22;2482;49.154;8.254;2023-05-27T14:03:39;24.60;97.60
4934;DHT22;2482;49.154;8.254;2023-05-27T14:06:06;24.50;97.30
4934;DHT22;2482;49.154;8.254;2023-05-27T14:08:34;24.20;96.60
4934;DHT22;2482;49.154;8.254;2023-05-27T14:11:02;24.20;96.00
4934;DHT22;2482;49.154;8.254;2023-05-27T14:13:29;24.40;95.70
4934;DHT22;2482;49.154;8.254;2023-05-27T14:15:56;24.40;94.10
4934;DHT22;2482;49.154;8.254;2023-05-27T14:18:23;24.20;95.20
4934;DHT22;2482;49.154;8.254;2023-05-27T14:20:50;24.40;96.20
4934;DHT22;2482;49.154;8.254;2023-05-27T14:23:18;24.50;96.00
4934;DHT22;2482;49.154;8.254;2023-05-27T14:25:45;24.90;95.30
4934;DHT22;2482;49.154;8.254;2023-05-27T14:28:12;24.70;95.30
4934;DHT22;2482;49.154;8.254;2023-05-27T14:30:40;24.70;95.10
4934;DHT22;2482;49.154;8.254;2023-05-27T14:33:07;24.70;94.60
4934;DHT22;2482;49.154;8.254;2023-05-27T14:35:38;24.70;94.30
4934;DHT22;2482;49.154;8.254;2023-05-27T14:38:06;24.40;94.70
4934;DHT22;2482;49.154;8.254;2023-05-27T14:40:34;24.50;95.40
4934;DHT22;2482;49.154;8.254;2023-05-27T14:43:01;24.70;94.80
4934;DHT22;2482;49.154;8.254;2023-05-27T14:45:28;24.50;93.80
4934;DHT22;2482;49.154;8.254;2023-05-27T14:47:55;24.50;93.20
4934;DHT22;2482;49.154;8.254;2023-05-27T14:50:23;24.70;93.30
4934;DHT22;2482;49.154;8.254;2023-05-27T14:52:51;24.60;92.30
4934;DHT22;2482;49.154;8.254;2023-05-27T14:55:20;24.50;93.20
4934;DHT22;2482;49.154;8.254;2023-05-27T14:57:47;24.30;93.70
4934;DHT22;2482;49.154;8.254;2023-05-27T15:00:14;24.40;93.00
4934;DHT22;2482;49.154;8.254;2023-05-27T15:02:41;24.70;93.30
4934;DHT22;2482;49.154;8.254;2023-05-27T15:05:09;24.70;92.80
4934;DHT22;2482;49.154;8.254;2023-05-27T15:07:37;24.60;93.30
4934;DHT22;2482;49.154;8.254;2023-05-27T15:10:05;24.70;93.40
4934;DHT22;2482;49.154;8.254;2023-05-27T15:12:43;24.70;94.80
4934;DHT22;2482;49.154;8.254;2023-05-27T15:15:16;24.70;93.20
4934;DHT22;2482;49.154;8.254;2023-05-27T15:17:45;24.90;91.20
4934;DHT22;2482;49.154;8.254;2023-05-27T15:20:13;24.90;90.90
4934;DHT22;2482;49.154;8.254;2023-05-27T15:22:41;24.80;93.00
4934;DHT22;2482;49.154;8.254;2023-05-27T15:25:09;24.90;92.90
4934;DHT22;2482;49.154;8.254;2023-05-27T15:27:36;24.80;92.60
4934;DHT22;2482;49.154;8.254;2023-05-27T15:30:04;24.70;91.60
4934;DHT22;2482;49.154;8.254;2023-05-27T15:32:32;24.60;88.80
4934;DHT22;2482;49.154;8.254;2023-05-27T15:34:59;24.50;90.80
4934;DHT22;2482;49.154;8.254;2023-05-27T15:37:30;24.50;91.40
4934;DHT22;2482;49.154;8.254;2023-05-27T15:39:57;24.60;89.40
4934;DHT22;2482;49.154;8.254;2023-05-27T15:42:24;24.70;90.20
4934;DHT22;2482;49.154;8.254;2023-05-27T15:44:52;25.00;88.10
4934;DHT22;2482;49.154;8.254;2023-05-27T15:47:19;24.80;88.10
4934;DHT22;2482;49.154;8.254;2023-05-27T15:49:46;24.80;87.20
4934;DHT22;2482;49.154;8.254;2023-05-27T15:52:13;24.70;82.60
4934;DHT22;2482;49.154;8.254;2023-05-27T15:54:41;24.70;87.60
4934;DHT22;2482;49.154;8.254;2023-05-27T15:57:09;24.50;86.30
4934;DHT22;2482;49.154;8.254;2023-05-27T15:59:37;24.70;85.50
4934;DHT22;2482;49.154;8.254;2023-05-27T16:02:05;24.70;85.80
4934;DHT22;2482;49.154;8.254;2023-05-27T16:04:34;24.90;85.60
4934;DHT22;2482;49.154;8.254;2023-05-27T16:07:02;24.80;85.30
4934;DHT22;2482;49.154;8.254;2023-05-27T16:09:30;24.70;83.20
4934;DHT22;2482;49.154;8.254;2023-05-27T16:11:57;24.90;82.20
4934;DHT22;2482;49.154;8.254;2023-05-27T16:14:24;25.00;80.70
4934;DHT22;2482;49.154;8.254;2023-05-27T16:16:51;24.90;83.80
4934;DHT22;2482;49.154;8.254;2023-05-27T16:19:18;24.80;85.60